Time;durP1;ratioP1;P1;durP2;ratioP2;P2;SDS_P1;SDS_P2;PMS_P1;PMS_P2;Temp;Humidity;BMP_temperature;BMP_pressure;BME280_temperature;BME280_humidity;BME280_pressure;Samples;Min_cycle;Max_cycle;Signal;HPM_P1;HPM_P2
2023/02/21 09:42:31;;;;;;;0.32;0.32;;;10.90;82.10;;;;;;4961040;28;20062;-76
2023/02/21 09:44:57;;;;;;;;;;;10.90;81.80;;;;;;4989983;28;20038;-77
2023/02/21 09:47:30;;;;;;;0.10;0.10;;;10.90;80.30;;;;;;5004834;28;19927;-76
2023/02/21 09:50:10;;;;;;;0.10;0.10;;;10.90;80.00;;;;;;5008905;28;20112;-77
2023/02/21 09:52:37;;;;;;;0.10;0.10;;;10.90;80.10;;;;;;4988141;28;20030;-77
2023/02/21 09:55:36;;;;;;;0.10;0.10;;;10.70;80.90;;;;;;5007434;28;20025;-77
2023/02/21 09:58:02;;;;;;;0.10;0.10;;;10.70;80.70;;;;;;5004904;28;20022;-77
2023/02/21 10:00:34;;;;;;;0.10;0.10;;;10.80;80.70;;;;;;5003015;28;20400;-77
2023/02/21 10:03:10;;;;;;;0.13;0.13;;;10.80;79.40;;;;;;5004550;28;20034;-77
2023/02/21 10:05:49;;;;;;;5.15;0.77;;;11.00;78.80;;;;;;5005345;28;20034;-77
2023/02/21 10:08:55;;;;;;;0.25;0.25;;;11.30;78.50;;;;;;5006511;28;20030;-77
2023/02/21 10:11:56;;;;;;;0.10;0.10;;;11.40;78.30;;;;;;5004890;28;20132;-77
2023/02/21 10:14:49;;;;;;;0.10;0.10;;;11.20;77.60;;;;;;5004576;28;20125;-77
2023/02/21 10:17:30;;;;;;;0.10;0.10;;;11.10;77.40;;;;;;5003173;28;20022;-77
2023/02/21 10:20:03;;;;;;;0.10;0.10;;;11.10;78.40;;;;;;4987017;28;20026;-77
2023/02/21 10:22:36;;;;;;;0.10;0.10;;;11.10;79.00;;;;;;5015254;28;20037;-77
2023/02/21 10:25:22;;;;;;;0.43;0.43;;;11.20;80.20;;;;;;4992976;28;20030;-77
2023/02/21 10:27:49;;;;;;;0.38;0.38;;;11.30;79.00;;;;;;5021227;28;20045;-77
2023/02/21 10:30:31;;;;;;;0.30;0.30;;;11.30;78.00;;;;;;5014635;28;20707;-77
2023/02/21 10:32:56;;;;;;;0.10;0.10;;;11.30;78.30;;;;;;5019778;28;20032;-77
2023/02/21 10:35:22;;;;;;;0.35;0.35;;;11.40;79.00;;;;;;5013386;28;20025;-77
2023/02/21 10:37:59;;;;;;;0.10;0.10;;;11.40;78.00;;;;;;5014185;28;20025;-77
2023/02/21 10:40:28;;;;;;;0.70;0.40;;;11.50;77.00;;;;;;5018493;28;20029;-77
2023/02/21 10:43:12;;;;;;;0.13;0.13;;;11.60;78.70;;;;;;5003357;28;20036;-77
2023/02/21 10:45:46;;;;;;;0.20;0.20;;;11.70;77.60;;;;;;5015740;28;20038;-77
2023/02/21 10:48:12;;;;;;;0.10;0.10;;;11.80;77.60;;;;;;5013607;28;20454;-77
2023/02/21 10:50:57;;;;;;;0.10;0.10;;;11.80;77.80;;;;;;5014295;28;20033;-77
2023/02/21 10:53:26;;;;;;;0.57;0.57;;;12.00;77.50;;;;;;5002840;28;20026;-77
2023/02/21 10:56:18;;;;;;;0.40;0.40;;;11.80;77.00;;;;;;4999212;28;20029;-77
2023/02/21 10:59:05;;;;;;;0.20;0.20;;;11.70;77.90;;;;;;5012529;28;20112;-77
2023/02/21 11:01:42;;;;;;;0.35;0.35;;;11.80;79.40;;;;;;5002596;28;20040;-77
2023/02/21 11:04:19;;;;;;;0.10;0.10;;;11.90;80.60;;;;;;5013387;28;20026;-77
2023/02/21 11:06:55;;;;;;;0.55;0.55;;;11.90;78.40;;;;;;5017230;28;20065;-77
2023/02/21 11:09:30;;;;;;;0.27;0.27;;;11.90;78.70;;;;;;5015761;28;20017;-77
2023/02/21 11:12:18;;;;;;;0.47;0.43;;;12.10;78.90;;;;;;5014593;28;20021;-77
2023/02/21 11:15:21;;;;;;;0.10;0.10;;;12.20;79.10;;;;;;4989729;28;20050;-77
2023/02/21 11:18:10;;;;;;;0.30;0.30;;;12.30;79.80;;;;;;5014060;28;20026;-77
2023/02/21 11:20:35;;;;;;;0.10;0.10;;;12.40;79.10;;;;;;5010148;28;20034;-77
2023/02/21 11:23:05;;;;;;;0.20;0.17;;;12.50;81.20;;;;;;4997086;28;20099;-77
2023/02/21 11:25:37;;;;;;;0.13;0.13;;;12.60;82.90;;;;;;5010337;28;20029;-77
2023/02/21 11:28:12;;;;;;;0.15;0.15;;;12.70;81.60;;;;;;5012441;28;20117;-77
2023/02/21 11:30:46;;;;;;;0.10;0.10;;;12.90;80.00;;;;;;5011404;28;20036;-77
2023/02/21 11:33:17;;;;;;;2.42;0.45;;;13.10;81.80;;;;;;5009132;28;20647;-77
2023/02/21 11:35:47;;;;;;;0.38;0.38;;;13.20;83.40;;;;;;5011093;28;20018;-77
2023/02/21 11:38:37;;;;;;;0.60;0.50;;;13.30;82.80;;;;;;4985345;28;20386;-77
2023/02/21 11:41:21;;;;;;;0.28;0.28;;;13.40;84.90;;;;;;5000798;28;20026;-77
2023/02/21 11:43:52;;;;;;;0.10;0.10;;;13.50;86.60;;;;;;5003599;28;20062;-77
2023/02/21 11:46:23;;;;;;;0.15;0.15;;;13.60;85.90;;;;;;5001481;28;20068;-77
2023/02/21 11:49:13;;;;;;;0.75;0.75;;;13.50;84.70;;;;;;4986359;28;20042;-78
2023/02/21 11:51:42;;;;;;;0.30;0.30;;;13.60;82.70;;;;;;4992006;28;20037;-77
2023/02/21 11:54:08;;;;;;;0.13;0.13;;;13.50;84.00;;;;;;4991899;28;20756;-77
2023/02/21 11:57:02;;;;;;;0.30;0.30;;;13.60;84.20;;;;;;5001466;28;20522;-77
2023/02/21 11:59:46;;;;;;;1.55;0.77;;;13.60;82.80;;;;;;4995058;28;20265;-77
2023/02/21 12:02:43;;;;;;;0.85;0.82;;;13.70;81.50;;;;;;4987546;28;20077;-77
2023/02/21 12:05:27;;;;;;;0.35;0.35;;;13.90;81.10;;;;;;4989585;28;20551;-77
2023/02/21 12:08:18;;;;;;;0.30;0.30;;;14.00;80.30;;;;;;4997704;28;20037;-77
2023/02/21 12:10:46;;;;;;;0.15;0.15;;;14.20;78.70;;;;;;4986496;28;20031;-77
2023/02/21 12:13:17;;;;;;;4.85;0.95;;;14.20;77.10;;;;;;4983480;28;20030;-77
2023/02/21 12:16:02;;;;;;;0.10;0.10;;;14.20;75.10;;;;;;4985047;28;20535;-77
2023/02/21 12:18:36;;;;;;;0.93;0.77;;;14.30;75.90;;;;;;4988073;28;20030;-77
2023/02/21 12:21:34;;;;;;;0.75;0.75;;;14.30;75.50;;;;;;4988173;28;20743;-77
2023/02/21 12:24:12;;;;;;;0.20;0.20;;;14.30;75.80;;;;;;4992422;28;20413;-77
2023/02/21 12:26:55;;;;;;;0.20;0.20;;;14.30;74.30;;;;;;4992955;28;20034;-77
2023/02/21 12:29:37;;;;;;;0.30;0.30;;;14.20;75.20;;;;;;4992572;28;20039;-77
2023/02/21 12:32:14;;;;;;;0.10;0.10;;;14.10;75.20;;;;;;4993542;28;20034;-77
2023/02/21 12:35:01;;;;;;;0.63;0.63;;;14.00;77.20;;;;;;5000689;28;20464;-77
2023/02/21 12:37:28;;;;;;;0.90;0.50;;;14.10;76.60;;;;;;4998482;28;20030;-77
2023/02/21 12:40:07;;;;;;;;;;;14.20;75.20;;;;;;4997909;28;20389;-77
2023/02/21 12:42:45;;;;;;;0.10;0.10;;;14.20;73.70;;;;;;4995580;28;19991;-77
2023/02/21 12:45:36;;;;;;;0.15;0.15;;;14.30;74.50;;;;;;5003511;28;20066;-77
2023/02/21 12:48:17;;;;;;;0.40;0.40;;;14.40;75.30;;;;;;5025343;28;20033;-77
2023/02/21 12:50:48;;;;;;;0.10;0.10;;;14.50;77.00;;;;;;5022818;28;20075;-77
2023/02/21 12:53:35;;;;;;;0.20;0.20;;;14.60;76.80;;;;;;5011706;28;20014;-77
2023/02/21 12:56:13;;;;;;;0.10;0.10;;;14.70;75.80;;;;;;5005104;28;20506;-77
2023/02/21 12:59:02;;;;;;;0.10;0.10;;;14.60;76.00;;;;;;5020943;28;20418;-77
2023/02/21 13:01:32;;;;;;;0.13;0.13;;;14.40;76.30;;;;;;5021128;28;20025;-77
2023/02/21 13:04:22;;;;;;;0.30;0.30;;;14.20;75.40;;;;;;5021889;28;20022;-77
2023/02/21 13:07:06;;;;;;;0.30;0.30;;;14.20;75.90;;;;;;5018727;28;20069;-77
2023/02/21 13:10:02;;;;;;;0.10;0.10;;;14.20;75.00;;;;;;5020490;28;20033;-77
2023/02/21 13:12:30;;;;;;;0.98;0.80;;;14.20;75.80;;;;;;4988171;28;20257;-77
2023/02/21 13:15:20;;;;;;;0.55;0.55;;;14.20;77.00;;;;;;5013781;28;20492;-77
2023/02/21 13:18:31;;;;;;;0.20;0.20;;;14.30;77.40;;;;;;5013985;28;20021;-77
2023/02/21 13:21:18;;;;;;;0.30;0.28;;;14.30;76.50;;;;;;5008708;28;20037;-77
2023/02/21 13:24:29;;;;;;;0.20;0.20;;;14.30;76.30;;;;;;5017999;28;20091;-77
2023/02/21 13:27:27;;;;;;;1.27;1.17;;;14.20;76.80;;;;;;5016497;28;20413;-77
2023/02/21 13:30:19;;;;;;;1.25;0.95;;;14.30;75.50;;;;;;5014449;28;20022;-77
2023/02/21 13:32:56;;;;;;;0.30;0.30;;;14.20;75.80;;;;;;4981235;28;20129;-77
2023/02/21 13:35:38;;;;;;;0.15;0.15;;;14.20;74.20;;;;;;5005475;28;20085;-77
2023/02/21 13:38:06;;;;;;;0.17;0.17;;;14.30;74.80;;;;;;5006212;28;20053;-77
2023/02/21 13:40:52;;;;;;;1.90;1.38;;;14.30;74.60;;;;;;5014299;28;20029;-77
2023/02/21 13:43:29;;;;;;;0.65;0.65;;;14.30;75.50;;;;;;5008014;28;20048;-77
2023/02/21 13:46:30;;;;;;;1.45;0.95;;;14.40;76.10;;;;;;4999429;28;20033;-77
2023/02/21 13:49:33;;;;;;;0.30;0.30;;;14.40;74.70;;;;;;5023625;28;20030;-77
2023/02/21 13:52:23;;;;;;;0.10;0.10;;;14.40;74.80;;;;;;5014134;28;20033;-77
2023/02/21 13:55:14;;;;;;;0.20;0.20;;;14.50;76.00;;;;;;5010204;28;20532;-77
2023/02/21 13:57:40;;;;;;;0.45;0.45;;;14.50;75.70;;;;;;5003061;28;20104;-77
2023/02/21 14:00:24;;;;;;;0.52;0.40;;;14.60;74.30;;;;;;5020900;28;20735;-77
2023/02/21 14:03:05;;;;;;;0.73;0.50;;;14.60;76.50;;;;;;5021195;28;20026;-77
2023/02/21 14:05:43;;;;;;;0.28;0.28;;;14.40;82.00;;;;;;5008863;28;20025;-77
2023/02/21 14:08:21;;;;;;;0.10;0.10;;;14.30;83.90;;;;;;5018786;28;20040;-77
2023/02/21 14:10:49;;;;;;;0.52;0.50;;;14.20;84.00;;;;;;5003595;28;20550;-77
2023/02/21 14:13:37;;;;;;;1.38;0.82;;;14.10;85.00;;;;;;4998632;28;20022;-77
2023/02/21 14:16:21;;;;;;;0.50;0.50;;;14.00;85.20;;;;;;5018933;28;20092;-77
2023/02/21 14:19:05;;;;;;;0.57;0.50;;;14.00;86.40;;;;;;5009875;28;20080;-77
2023/02/21 14:21:46;;;;;;;0.30;0.30;;;14.00;85.20;;;;;;5013144;28;20037;-78
2023/02/21 14:24:21;;;;;;;0.20;0.20;;;14.00;87.20;;;;;;5016408;28;20021;-77
2023/02/21 14:26:56;;;;;;;0.43;0.43;;;14.00;85.40;;;;;;5014526;28;20037;-77
2023/02/21 14:29:37;;;;;;;0.30;0.20;;;14.00;86.10;;;;;;5012677;28;20041;-77
2023/02/21 14:32:03;;;;;;;0.63;0.63;;;14.00;83.60;;;;;;5016092;28;20072;-77
2023/02/21 14:34:34;;;;;;;0.33;0.33;;;14.10;84.90;;;;;;5003298;28;20756;-77
2023/02/21 14:37:20;;;;;;;0.20;0.20;;;14.00;84.70;;;;;;5014316;28;20025;-77
2023/02/21 14:39:53;;;;;;;0.40;0.40;;;14.10;84.70;;;;;;5010009;28;20030;-77
2023/02/21 14:42:37;;;;;;;0.20;0.20;;;14.10;84.70;;;;;;5005722;28;20398;-77
2023/02/21 14:45:08;;;;;;;0.10;0.10;;;14.10;84.90;;;;;;5007706;28;20334;-78
2023/02/21 14:47:53;;;;;;;0.17;0.17;;;14.00;84.80;;;;;;4998525;28;20141;-77
2023/02/21 14:50:46;;;;;;;0.20;0.20;;;14.00;85.40;;;;;;5020395;28;20437;-77
2023/02/21 14:53:21;;;;;;;0.20;0.20;;;14.10;85.40;;;;;;5010265;28;20172;-78
2023/02/21 14:56:06;;;;;;;0.55;0.55;;;14.10;84.80;;;;;;4981595;28;20033;-78
2023/02/21 14:59:04;;;;;;;0.38;0.38;;;14.10;85.50;;;;;;5019759;28;20034;-77
2023/02/21 15:01:46;;;;;;;1.00;0.35;;;14.20;85.00;;;;;;5018932;28;20043;-77
2023/02/21 15:04:27;;;;;;;0.75;0.75;;;14.10;85.50;;;;;;5003471;28;20112;-77
2023/02/21 15:07:11;;;;;;;0.00;0.00;;;14.10;85.60;;;;;;5017657;28;20030;-77
2023/02/21 15:09:37;;;;;;;0.85;0.75;;;14.00;85.70;;;;;;5007155;28;20784;-77
2023/02/21 15:12:15;;;;;;;0.43;0.43;;;14.00;83.90;;;;;;5013374;28;20085;-77
2023/02/21 15:14:49;;;;;;;0.05;0.05;;;14.00;84.20;;;;;;5013331;28;20041;-77
2023/02/21 15:17:21;;;;;;;0.22;0.22;;;14.00;83.70;;;;;;5002068;28;20036;-77
2023/02/21 15:20:04;;;;;;;0.52;0.52;;;14.00;83.90;;;;;;4987182;28;20050;-77
2023/02/21 15:22:30;;;;;;;0.20;0.20;;;14.00;82.90;;;;;;5017851;28;20025;-77
2023/02/21 15:25:08;;;;;;;0.10;0.10;;;14.00;82.20;;;;;;4996684;28;20040;-77
2023/02/21 15:27:50;;;;;;;0.00;0.00;;;13.80;81.90;;;;;;5015686;28;20492;-77
2023/02/21 15:30:18;;;;;;;0.75;0.75;;;13.80;81.60;;;;;;5017899;28;20100;-77
2023/02/21 15:33:10;;;;;;;1.55;1.45;;;13.80;82.50;;;;;;5013217;28;20569;-78
2023/02/21 15:35:39;;;;;;;0.55;0.55;;;13.80;80.60;;;;;;5005794;28;20029;-77
2023/02/21 15:38:14;;;;;;;0.20;0.20;;;13.70;80.00;;;;;;5011876;28;20493;-77
2023/02/21 15:40:40;;;;;;;0.82;0.80;;;13.70;79.70;;;;;;4988709;28;20116;-77
2023/02/21 15:43:07;;;;;;;0.40;0.40;;;13.70;79.70;;;;;;5002695;28;20076;-77
2023/02/21 15:45:46;;;;;;;0.30;0.30;;;13.70;79.80;;;;;;5006636;28;20528;-77
2023/02/21 15:48:12;;;;;;;0.40;0.40;;;13.60;79.40;;;;;;5022257;28;20778;-77
2023/02/21 15:50:42;;;;;;;1.00;0.50;;;13.60;80.50;;;;;;5020074;28;20037;-78
2023/02/21 15:53:21;;;;;;;0.20;0.20;;;13.60;80.70;;;;;;5013873;28;20810;-77
2023/02/21 15:55:48;;;;;;;1.23;1.23;;;13.50;81.20;;;;;;5014779;28;20121;-77
2023/02/21 15:58:22;;;;;;;0.20;0.20;;;13.50;80.60;;;;;;5012859;28;20378;-78
2023/02/21 16:01:09;;;;;;;0.75;0.75;;;13.40;81.70;;;;;;4999570;28;20021;-77
2023/02/21 16:03:41;;;;;;;1.23;0.75;;;13.20;81.30;;;;;;5014880;28;20452;-77
2023/02/21 16:06:15;;;;;;;0.90;0.90;;;13.20;82.20;;;;;;5019290;28;20114;-77
2023/02/21 16:08:58;;;;;;;0.43;0.43;;;13.00;82.20;;;;;;4998544;28;20617;-78
2023/02/21 16:11:42;;;;;;;0.20;0.20;;;12.90;82.20;;;;;;5015450;28;20026;-78
2023/02/21 16:14:34;;;;;;;0.10;0.10;;;12.80;81.90;;;;;;5003825;28;20488;-77
2023/02/21 16:17:15;;;;;;;0.10;0.10;;;12.70;81.80;;;;;;4997678;28;20038;-77
2023/02/21 16:19:44;;;;;;;0.10;0.10;;;12.70;81.80;;;;;;5012578;28;20030;-77
2023/02/21 16:22:27;;;;;;;0.70;0.43;;;12.70;81.50;;;;;;5016073;28;20033;-77
2023/02/21 16:25:11;;;;;;;0.00;0.00;;;12.80;81.00;;;;;;5001673;28;20088;-77
2023/02/21 16:27:52;;;;;;;0.43;0.43;;;12.70;81.70;;;;;;5004956;28;20837;-80
2023/02/21 16:30:24;;;;;;;0.10;0.10;;;12.70;81.70;;;;;;5014023;28;20030;-79
2023/02/21 16:32:53;;;;;;;0.35;0.35;;;12.60;82.00;;;;;;4984434;28;20398;-80
2023/02/21 16:35:21;;;;;;;0.25;0.25;;;12.70;81.90;;;;;;5007158;28;20160;-80
2023/02/21 16:37:50;;;;;;;0.35;0.28;;;12.70;81.70;;;;;;5007336;28;20029;-80
2023/02/21 16:40:32;;;;;;;0.93;0.47;;;12.70;81.80;;;;;;5009295;28;20038;-80
2023/02/21 16:42:59;;;;;;;0.47;0.47;;;12.70;81.70;;;;;;4999338;28;20033;-80
2023/02/21 16:45:25;;;;;;;0.28;0.28;;;12.60;81.80;;;;;;5001526;28;20115;-82
2023/02/21 16:48:13;;;;;;;0.45;0.45;;;12.60;81.90;;;;;;5010164;28;20128;-78
2023/02/21 16:50:39;;;;;;;0.20;0.20;;;12.60;82.00;;;;;;5007219;28;20117;-77
2023/02/21 16:53:05;;;;;;;0.25;0.25;;;12.70;82.00;;;;;;5000155;28;20024;-76
2023/02/21 16:55:31;;;;;;;0.13;0.13;;;12.70;82.30;;;;;;5017170;28;20818;-77
2023/02/21 16:58:03;;;;;;;0.20;0.20;;;12.60;82.00;;;;;;5019334;28;20036;-76
2023/02/21 17:00:30;;;;;;;0.20;0.20;;;12.60;82.20;;;;;;5016817;28;20028;-76
2023/02/21 17:02:55;;;;;;;0.17;0.17;;;12.60;82.40;;;;;;5006035;28;20066;-77
2023/02/21 17:05:23;;;;;;;0.17;0.17;;;12.60;82.40;;;;;;5007057;28;20869;-77
2023/02/21 17:07:51;;;;;;;0.20;0.20;;;12.50;82.70;;;;;;5003610;28;20033;-76
2023/02/21 17:10:18;;;;;;;1.23;1.13;;;12.50;82.60;;;;;;5003607;28;20026;-76
2023/02/21 17:12:44;;;;;;;2.20;0.55;;;12.40;82.70;;;;;;4983519;28;20022;-76
2023/02/21 17:15:10;;;;;;;1.58;1.48;;;12.50;84.60;;;;;;5004960;28;20025;-76
2023/02/21 17:17:39;;;;;;;6.73;3.60;;;12.50;84.40;;;;;;5004526;28;20103;-77
2023/02/21 17:20:06;;;;;;;3.40;2.85;;;12.40;84.30;;;;;;5003757;28;20033;-78
2023/02/21 17:22:32;;;;;;;9.95;2.67;;;12.30;84.60;;;;;;4987602;28;20793;-78
2023/02/21 17:24:58;;;;;;;3.28;2.10;;;12.20;85.00;;;;;;5003977;28;20014;-79
2023/02/21 17:27:24;;;;;;;1.37;1.27;;;12.10;85.20;;;;;;5005110;28;20065;-79
2023/02/21 17:29:50;;;;;;;3.08;1.27;;;12.10;85.80;;;;;;5006288;28;20130;-79
2023/02/21 17:32:16;;;;;;;1.53;1.37;;;12.00;86.70;;;;;;4998516;28;20102;-79
2023/02/21 17:34:42;;;;;;;3.03;1.65;;;11.90;86.80;;;;;;5011121;28;20398;-77
2023/02/21 17:37:08;;;;;;;0.60;0.53;;;11.80;86.50;;;;;;4990649;28;20026;-77
2023/02/21 17:39:35;;;;;;;1.00;1.00;;;11.60;86.70;;;;;;5011684;28;20529;-78
2023/02/21 17:42:01;;;;;;;0.57;0.52;;;11.50;86.80;;;;;;4991846;28;20025;-79
2023/02/21 17:44:26;;;;;;;0.60;0.50;;;11.50;86.90;;;;;;5005244;28;20149;-78
2023/02/21 17:46:54;;;;;;;2.90;1.00;;;11.40;87.30;;;;;;5000967;28;20042;-78
2023/02/21 17:49:23;;;;;;;0.40;0.40;;;11.50;87.20;;;;;;5006271;28;20532;-78
2023/02/21 17:51:49;;;;;;;0.98;0.57;;;11.50;87.00;;;;;;5004914;28;20030;-78
2023/02/21 17:54:17;;;;;;;0.10;0.10;;;11.60;86.80;;;;;;5012433;28;20034;-78
2023/02/21 17:56:42;;;;;;;0.82;0.77;;;11.60;86.80;;;;;;5021079;28;20057;-78
2023/02/21 17:59:08;;;;;;;0.52;0.52;;;11.60;86.80;;;;;;5022310;28;20590;-78
2023/02/21 18:01:34;;;;;;;0.20;0.20;;;11.60;86.80;;;;;;5019824;28;20115;-78
2023/02/21 18:04:00;;;;;;;0.10;0.10;;;11.50;86.70;;;;;;5006091;28;20029;-78
2023/02/21 18:06:27;;;;;;;0.10;0.10;;;11.60;86.70;;;;;;4999399;28;20081;-80
2023/02/21 18:08:54;;;;;;;0.20;0.20;;;11.60;86.50;;;;;;4999463;28;20758;-79
2023/02/21 18:11:21;;;;;;;1.23;0.90;;;11.60;86.40;;;;;;5011001;28;20061;-79
2023/02/21 18:13:47;;;;;;;2.42;1.20;;;11.60;86.20;;;;;;5018381;28;20033;-79
2023/02/21 18:16:13;;;;;;;0.20;0.20;;;11.70;86.10;;;;;;5017766;28;21032;-79
2023/02/21 18:18:39;;;;;;;2.25;0.90;;;11.70;86.10;;;;;;5004029;28;20037;-79
2023/02/21 18:21:05;;;;;;;0.20;0.20;;;11.70;86.20;;;;;;5012456;28;20109;-77
2023/02/21 18:23:32;;;;;;;0.20;0.20;;;11.80;86.10;;;;;;5015182;28;20060;-77
2023/02/21 18:25:59;;;;;;;0.77;0.77;;;11.80;85.90;;;;;;5007377;28;20037;-77
2023/02/21 18:28:25;;;;;;;0.50;0.50;;;11.80;85.90;;;;;;5010641;28;20034;-77
2023/02/21 18:30:52;;;;;;;0.87;0.87;;;11.70;85.90;;;;;;4996575;28;20139;-77
2023/02/21 18:33:19;;;;;;;0.32;0.32;;;11.80;85.90;;;;;;5014706;28;20049;-77
2023/02/21 18:35:45;;;;;;;0.00;0.00;;;11.80;85.80;;;;;;5012621;28;20490;-77
2023/02/21 18:38:11;;;;;;;0.60;0.60;;;11.80;86.00;;;;;;5009741;28;20037;-77
2023/02/21 18:40:43;;;;;;;;;;;11.80;85.80;;;;;;5009511;28;20113;-77
2023/02/21 18:43:25;;;;;;;2.17;1.95;;;11.90;85.60;;;;;;5002825;28;20282;-75
2023/02/21 18:45:52;;;;;;;0.82;0.82;;;11.80;85.90;;;;;;4991524;28;20033;-76
2023/02/21 18:48:18;;;;;;;;;;;11.80;86.10;;;;;;5016431;28;20050;-76
2023/02/21 18:50:44;;;;;;;0.60;0.60;;;11.80;86.20;;;;;;5008333;28;19910;-77
2023/02/21 18:53:10;;;;;;;0.10;0.10;;;11.80;86.30;;;;;;5014472;28;20041;-76
2023/02/21 18:55:37;;;;;;;1.00;1.00;;;11.70;86.50;;;;;;5012465;28;20527;-77
2023/02/21 18:58:20;;;;;;;0.20;0.20;;;11.70;86.40;;;;;;5001599;28;20065;-78
2023/02/21 19:01:20;;;;;;;0.60;0.60;;;11.80;86.50;;;;;;4985424;28;20033;-77
2023/02/21 19:03:48;;;;;;;0.28;0.28;;;11.80;86.40;;;;;;4999577;28;20029;-77
2023/02/21 19:06:16;;;;;;;0.57;0.57;;;11.70;86.40;;;;;;5012655;28;20107;-78
2023/02/21 19:08:45;;;;;;;0.28;0.28;;;11.70;86.40;;;;;;5016769;28;20030;-78
2023/02/21 19:11:12;;;;;;;0.40;0.40;;;11.70;86.60;;;;;;5004319;28;20029;-78
2023/02/21 19:13:38;;;;;;;0.10;0.10;;;11.70;86.50;;;;;;4998224;28;20026;-78
2023/02/21 19:16:04;;;;;;;0.15;0.15;;;11.80;86.70;;;;;;5014920;28;20401;-78
2023/02/21 19:18:30;;;;;;;0.73;0.73;;;11.80;86.80;;;;;;5000232;28;20065;-78
2023/02/21 19:20:56;;;;;;;0.20;0.20;;;11.80;88.40;;;;;;4999892;28;20907;-78
2023/02/21 19:23:23;;;;;;;1.30;1.25;;;11.70;87.80;;;;;;4997750;28;20037;-79
2023/02/21 19:25:49;;;;;;;0.10;0.10;;;11.70;87.70;;;;;;4995118;28;20042;-76
2023/02/21 19:28:14;;;;;;;0.50;0.50;;;11.80;87.40;;;;;;4999738;28;20037;-76
2023/02/21 19:30:40;;;;;;;0.22;0.22;;;11.70;87.70;;;;;;4998295;28;20029;-76
2023/02/21 19:33:07;;;;;;;0.30;0.30;;;11.80;88.10;;;;;;4997921;28;21089;-76
2023/02/21 19:35:34;;;;;;;0.30;0.30;;;11.60;88.80;;;;;;4982048;28;20688;-77
2023/02/21 19:38:04;;;;;;;9.55;0.82;;;11.50;89.40;;;;;;4999160;28;20026;-77
2023/02/21 19:40:31;;;;;;;0.20;0.20;;;11.40;89.90;;;;;;5000592;28;20022;-77
2023/02/21 19:42:56;;;;;;;0.70;0.70;;;11.40;89.80;;;;;;4997374;28;20044;-78
2023/02/21 19:45:22;;;;;;;0.32;0.32;;;11.50;89.70;;;;;;4962545;28;20490;-77
2023/02/21 19:47:48;;;;;;;0.32;0.32;;;11.40;89.90;;;;;;4976944;28;20038;-77
2023/02/21 19:50:14;;;;;;;0.75;0.75;;;11.40;90.10;;;;;;4977915;28;20580;-77
2023/02/21 19:52:39;;;;;;;0.73;0.73;;;11.40;90.10;;;;;;4978895;28;20030;-77
2023/02/21 19:55:06;;;;;;;0.10;0.10;;;11.30;90.20;;;;;;4975305;28;20114;-76
2023/02/21 19:57:32;;;;;;;1.08;0.82;;;11.30;90.30;;;;;;4959113;28;20591;-77
2023/02/21 19:59:57;;;;;;;0.65;0.65;;;11.30;90.50;;;;;;4977474;28;20030;-77
2023/02/21 20:02:23;;;;;;;0.50;0.50;;;11.30;90.60;;;;;;4976641;28;20511;-77
2023/02/21 20:04:49;;;;;;;0.10;0.10;;;11.30;90.40;;;;;;4976247;28;20109;-77
2023/02/21 20:07:16;;;;;;;0.10;0.10;;;11.30;90.40;;;;;;4973880;28;20041;-77
2023/02/21 20:09:44;;;;;;;0.40;0.40;;;11.30;90.20;;;;;;4973863;28;20619;-77
2023/02/21 20:12:10;;;;;;;0.73;0.73;;;11.40;89.90;;;;;;4976111;28;20026;-76
2023/02/21 20:14:35;;;;;;;1.50;1.20;;;11.40;89.70;;;;;;4969263;28;20587;-77
2023/02/21 20:17:01;;;;;;;1.05;1.02;;;11.50;89.10;;;;;;4975983;28;20128;-77
2023/02/21 20:19:28;;;;;;;0.60;0.60;;;11.40;89.20;;;;;;4976522;28;20034;-77
2023/02/21 20:21:55;;;;;;;0.63;0.63;;;11.40;88.90;;;;;;4976722;28;20042;-77
2023/02/21 20:24:21;;;;;;;0.70;0.70;;;11.50;89.10;;;;;;4973192;28;20745;-77
2023/02/21 20:26:50;;;;;;;0.95;0.95;;;11.50;88.90;;;;;;4978075;28;20054;-77
2023/02/21 20:29:19;;;;;;;2.92;1.52;;;11.50;88.90;;;;;;4978131;28;20030;-77
2023/02/21 20:31:45;;;;;;;0.63;0.63;;;11.50;88.90;;;;;;4962157;28;20062;-77
2023/02/21 20:34:10;;;;;;;0.20;0.20;;;11.50;89.20;;;;;;4977571;28;20109;-77
2023/02/21 20:36:38;;;;;;;0.60;0.60;;;11.50;89.80;;;;;;4980104;28;21075;-77
2023/02/21 20:39:06;;;;;;;1.45;1.35;;;11.60;89.70;;;;;;4982909;28;20041;-77
2023/02/21 20:41:34;;;;;;;0.77;0.77;;;11.50;90.20;;;;;;4980317;28;20034;-77
2023/02/21 20:44:00;;;;;;;1.02;1.02;;;11.50;90.30;;;;;;4992874;28;20131;-77
2023/02/21 20:46:27;;;;;;;1.55;0.82;;;11.40;90.30;;;;;;4985855;28;20447;-77
2023/02/21 20:48:54;;;;;;;;;;;11.40;90.30;;;;;;5003044;28;20828;-77
2023/02/21 20:51:36;;;;;;;0.30;0.30;;;11.40;90.20;;;;;;5001899;28;19920;-77
2023/02/21 20:54:03;;;;;;;0.80;0.80;;;11.50;90.40;;;;;;4999338;28;20037;-77
2023/02/21 20:56:34;;;;;;;1.55;1.45;;;11.40;90.60;;;;;;4987454;28;20872;-77
2023/02/21 20:59:01;;;;;;;0.20;0.20;;;11.50;90.70;;;;;;4999958;28;20069;-77
2023/02/21 21:01:27;;;;;;;1.52;0.93;;;11.50;91.00;;;;;;5002616;28;20053;-76
2023/02/21 21:03:54;;;;;;;15.27;1.48;;;11.50;91.40;;;;;;5000533;28;20537;-77
2023/02/21 21:06:21;;;;;;;;;;;11.50;91.30;;;;;;4996746;28;20497;-77
2023/02/21 21:08:47;;;;;;;0.63;0.63;;;11.50;91.40;;;;;;4999801;28;19925;-77
2023/02/21 21:11:13;;;;;;;0.43;0.30;;;11.40;91.50;;;;;;4997459;28;20081;-77
2023/02/21 21:13:40;;;;;;;1.00;0.95;;;11.50;91.70;;;;;;5001742;28;20299;-77
2023/02/21 21:16:08;;;;;;;1.00;1.00;;;11.50;91.90;;;;;;5003937;28;20038;-77
2023/02/21 21:18:34;;;;;;;0.25;0.25;;;11.40;92.10;;;;;;4982821;28;20041;-77
2023/02/21 21:21:00;;;;;;;1.92;1.58;;;11.40;93.10;;;;;;4997894;28;20489;-77
2023/02/21 21:23:25;;;;;;;0.50;0.50;;;11.40;93.10;;;;;;5000870;28;20034;-77
2023/02/21 21:25:51;;;;;;;1.10;0.82;;;11.40;93.20;;;;;;5005649;28;20025;-77
2023/02/21 21:28:17;;;;;;;3.00;1.83;;;11.50;93.20;;;;;;4981204;28;20565;-77
2023/02/21 21:30:43;;;;;;;2.75;0.63;;;11.50;93.70;;;;;;5008712;28;20052;-77
2023/02/21 21:33:08;;;;;;;1.03;1.03;;;11.40;93.50;;;;;;5013706;28;20063;-76
2023/02/21 21:35:35;;;;;;;0.40;0.40;;;11.40;94.10;;;;;;4998131;28;20455;-77
2023/02/21 21:38:01;;;;;;;;;;;11.40;93.90;;;;;;5006798;28;20029;-76
2023/02/21 21:40:28;;;;;;;0.80;0.80;;;11.30;94.00;;;;;;4993540;28;19917;-76
2023/02/21 21:42:54;;;;;;;0.60;0.60;;;11.30;93.80;;;;;;5001471;28;20026;-77
2023/02/21 21:45:25;;;;;;;1.40;1.30;;;11.30;93.80;;;;;;4989783;28;20289;-77
2023/02/21 21:47:53;;;;;;;3.83;0.85;;;11.40;93.90;;;;;;4983283;28;20030;-77
2023/02/21 21:50:20;;;;;;;1.38;1.20;;;11.40;93.80;;;;;;4992459;28;20062;-77
2023/02/21 21:52:54;;;;;;;;;;;11.40;93.70;;;;;;5000938;28;20021;-77
2023/02/21 21:55:25;;;;;;;0.32;0.32;;;11.40;93.90;;;;;;5006731;28;19961;-77
2023/02/21 21:57:54;;;;;;;0.22;0.22;;;11.40;94.00;;;;;;5005722;28;20022;-77
2023/02/21 22:00:29;;;;;;;0.60;0.60;;;11.40;94.00;;;;;;4998424;28;20061;-77
2023/02/21 22:03:00;;;;;;;0.30;0.30;;;11.40;94.30;;;;;;5004840;28;20030;-77
2023/02/21 22:05:29;;;;;;;1.08;0.88;;;11.40;94.40;;;;;;5003461;28;20030;-77
2023/02/21 22:07:55;;;;;;;2.53;0.75;;;11.40;95.10;;;;;;4978289;28;20532;-77
2023/02/21 22:10:22;;;;;;;0.63;0.63;;;11.40;95.10;;;;;;4977872;28;20049;-77
2023/02/21 22:12:49;;;;;;;;;;;11.40;95.30;;;;;;4999674;28;20135;-76
2023/02/21 22:15:24;;;;;;;2.25;0.50;;;11.40;95.40;;;;;;5003785;28;20000;-77
2023/02/21 22:17:50;;;;;;;0.88;0.88;;;11.40;95.50;;;;;;5003167;28;20034;-77
2023/02/21 22:20:18;;;;;;;0.65;0.65;;;11.30;95.60;;;;;;5002624;28;20030;-78
2023/02/21 22:22:50;;;;;;;1.52;1.42;;;11.30;95.90;;;;;;4986614;28;20494;-77
2023/02/21 22:25:18;;;;;;;1.13;1.13;;;11.30;95.90;;;;;;4992588;28;20030;-79
2023/02/21 22:27:48;;;;;;;2.10;1.92;;;11.30;96.00;;;;;;4996217;28;20084;-79
2023/02/21 22:30:16;;;;;;;3.50;1.40;;;11.30;96.10;;;;;;4999406;28;20109;-79
2023/02/21 22:32:42;;;;;;;3.05;1.30;;;11.30;96.30;;;;;;5003967;28;20022;-79
2023/02/21 22:35:17;;;;;;;0.52;0.52;;;11.30;96.50;;;;;;4998222;28;20030;-80
2023/02/21 22:37:49;;;;;;;0.80;0.68;;;11.30;96.70;;;;;;5001808;28;20101;-78
2023/02/21 22:40:24;;;;;;;0.50;0.50;;;11.20;96.70;;;;;;5012991;28;20782;-78
2023/02/21 22:42:54;;;;;;;0.45;0.45;;;11.20;96.80;;;;;;4984409;28;20472;-78
2023/02/21 22:45:21;;;;;;;1.05;1.05;;;11.20;97.00;;;;;;4987940;28;20108;-79
2023/02/21 22:47:48;;;;;;;2.90;1.50;;;11.20;97.40;;;;;;5011541;28;20045;-79
2023/02/21 22:50:18;;;;;;;3.65;1.88;;;11.20;97.60;;;;;;4995329;28;20033;-79
2023/02/21 22:52:58;;;;;;;0.95;0.95;;;11.20;97.60;;;;;;4998103;28;20029;-79
2023/02/21 22:55:25;;;;;;;1.00;0.98;;;11.20;97.80;;;;;;4994372;28;20625;-79
2023/02/21 22:57:52;;;;;;;0.30;0.30;;;11.20;98.00;;;;;;5001070;28;20760;-79
2023/02/21 23:00:31;;;;;;;1.10;1.00;;;11.20;98.20;;;;;;5000841;28;20052;-79
2023/02/21 23:02:57;;;;;;;2.95;1.63;;;11.20;98.30;;;;;;4999437;28;20018;-79